sensor_id;sensor_type;location;lat;lon;timestamp;temperature;humidity
2929;DHT22;1474;51.460;7.150;2023-07-31T00:00:01;16.80;91.70
2929;DHT22;1474;51.460;7.150;2023-07-31T00:02:33;16.80;91.70
2929;DHT22;1474;51.460;7.150;2023-07-31T00:05:01;16.70;91.70
2929;DHT22;1474;51.460;7.150;2023-07-31T00:07:31;16.80;91.70
2929;DHT22;1474;51.460;7.150;2023-07-31T00:10:00;16.80;91.70
2929;DHT22;1474;51.460;7.150;2023-07-31T00:12:28;16.80;91.70
2929;DHT22;1474;51.460;7.150;2023-07-31T00:14:55;16.80;91.60
2929;DHT22;1474;51.460;7.150;2023-07-31T00:17:26;16.80;91.70
2929;DHT22;1474;51.460;7.150;2023-07-31T00:19:53;16.80;91.60
2929;DHT22;1474;51.460;7.150;2023-07-31T00:22:22;16.80;91.60
2929;DHT22;1474;51.460;7.150;2023-07-31T00:24:49;16.70;91.60
2929;DHT22;1474;51.460;7.150;2023-07-31T00:27:17;16.80;91.70
2929;DHT22;1474;51.460;7.150;2023-07-31T00:29:43;16.80;91.60
2929;DHT22;1474;51.460;7.150;2023-07-31T00:32:10;16.70;91.60
2929;DHT22;1474;51.460;7.150;2023-07-31T00:34:36;16.70;91.60
2929;DHT22;1474;51.460;7.150;2023-07-31T00:37:03;16.70;91.70
2929;DHT22;1474;51.460;7.150;2023-07-31T00:39:30;16.70;91.70
2929;DHT22;1474;51.460;7.150;2023-07-31T00:41:56;16.80;91.70
2929;DHT22;1474;51.460;7.150;2023-07-31T00:44:23;16.80;91.70
2929;DHT22;1474;51.460;7.150;2023-07-31T00:46:49;16.80;91.70
2929;DHT22;1474;51.460;7.150;2023-07-31T00:49:18;16.70;91.70
2929;DHT22;1474;51.460;7.150;2023-07-31T00:51:45;16.70;91.70
2929;DHT22;1474;51.460;7.150;2023-07-31T00:54:12;16.70;91.80
2929;DHT22;1474;51.460;7.150;2023-07-31T00:56:40;16.70;91.80
2929;DHT22;1474;51.460;7.150;2023-07-31T00:59:10;16.70;91.70
2929;DHT22;1474;51.460;7.150;2023-07-31T01:01:38;16.80;91.80
2929;DHT22;1474;51.460;7.150;2023-07-31T01:04:06;16.70;91.60
2929;DHT22;1474;51.460;7.150;2023-07-31T01:07:01;16.70;91.60
2929;DHT22;1474;51.460;7.150;2023-07-31T01:12:57;16.80;91.40
2929;DHT22;1474;51.460;7.150;2023-07-31T01:15:26;16.70;91.20
2929;DHT22;1474;51.460;7.150;2023-07-31T01:17:54;16.70;91.40
2929;DHT22;1474;51.460;7.150;2023-07-31T01:20:27;16.70;91.40
2929;DHT22;1474;51.460;7.150;2023-07-31T01:26:28;16.70;91.30
2929;DHT22;1474;51.460;7.150;2023-07-31T01:29:07;16.80;91.20
2929;DHT22;1474;51.460;7.150;2023-07-31T01:31:40;16.70;91.10
2929;DHT22;1474;51.460;7.150;2023-07-31T01:34:09;16.70;91.20
2929;DHT22;1474;51.460;7.150;2023-07-31T01:36:37;16.70;91.20
2929;DHT22;1474;51.460;7.150;2023-07-31T01:39:04;16.80;91.40
2929;DHT22;1474;51.460;7.150;2023-07-31T01:41:31;16.80;91.20
2929;DHT22;1474;51.460;7.150;2023-07-31T01:43:57;16.80;90.80
2929;DHT22;1474;51.460;7.150;2023-07-31T01:46:23;16.80;90.70
2929;DHT22;1474;51.460;7.150;2023-07-31T01:48:48;16.80;90.80
2929;DHT22;1474;51.460;7.150;2023-07-31T01:51:14;16.80;90.70
2929;DHT22;1474;51.460;7.150;2023-07-31T01:53:40;16.80;90.80
2929;DHT22;1474;51.460;7.150;2023-07-31T01:56:09;16.80;90.80
2929;DHT22;1474;51.460;7.150;2023-07-31T01:58:35;16.80;90.80
2929;DHT22;1474;51.460;7.150;2023-07-31T02:01:01;16.70;90.80
2929;DHT22;1474;51.460;7.150;2023-07-31T02:03:29;16.70;90.80
2929;DHT22;1474;51.460;7.150;2023-07-31T02:05:55;16.70;90.70
2929;DHT22;1474;51.460;7.150;2023-07-31T02:08:22;16.80;90.90
2929;DHT22;1474;51.460;7.150;2023-07-31T02:10:48;16.80;90.60
2929;DHT22;1474;51.460;7.150;2023-07-31T02:13:14;16.80;90.50
2929;DHT22;1474;51.460;7.150;2023-07-31T02:15:39;16.80;90.40
2929;DHT22;1474;51.460;7.150;2023-07-31T02:18:05;16.80;90.20
2929;DHT22;1474;51.460;7.150;2023-07-31T02:20:35;16.80;90.20
2929;DHT22;1474;51.460;7.150;2023-07-31T02:23:01;16.80;90.30
2929;DHT22;1474;51.460;7.150;2023-07-31T02:25:27;16.80;90.20
2929;DHT22;1474;51.460;7.150;2023-07-31T02:27:53;16.70;90.20
2929;DHT22;1474;51.460;7.150;2023-07-31T02:30:18;16.80;90.30
2929;DHT22;1474;51.460;7.150;2023-07-31T02:32:44;16.80;90.20
2929;DHT22;1474;51.460;7.150;2023-07-31T02:35:13;16.80;90.20
2929;DHT22;1474;51.460;7.150;2023-07-31T02:37:41;16.70;90.10
2929;DHT22;1474;51.460;7.150;2023-07-31T02:40:08;16.70;90.10
2929;DHT22;1474;51.460;7.150;2023-07-31T02:42:34;16.70;90.10
2929;DHT22;1474;51.460;7.150;2023-07-31T02:45:00;16.70;89.80
2929;DHT22;1474;51.460;7.150;2023-07-31T02:47:26;16.70;90.00
2929;DHT22;1474;51.460;7.150;2023-07-31T02:49:52;16.60;90.00
2929;DHT22;1474;51.460;7.150;2023-07-31T02:52:18;16.60;90.00
2929;DHT22;1474;51.460;7.150;2023-07-31T02:54:46;16.60;90.00
2929;DHT22;1474;51.460;7.150;2023-07-31T02:57:12;16.70;90.00
2929;DHT22;1474;51.460;7.150;2023-07-31T02:59:41;16.60;89.90
2929;DHT22;1474;51.460;7.150;2023-07-31T03:02:07;16.70;89.90
2929;DHT22;1474;51.460;7.150;2023-07-31T03:04:33;16.60;89.90
2929;DHT22;1474;51.460;7.150;2023-07-31T03:06:59;16.70;89.70
2929;DHT22;1474;51.460;7.150;2023-07-31T03:09:25;16.70;89.70
2929;DHT22;1474;51.460;7.150;2023-07-31T03:11:54;16.60;89.60
2929;DHT22;1474;51.460;7.150;2023-07-31T03:14:20;16.60;89.60
2929;DHT22;1474;51.460;7.150;2023-07-31T03:16:46;16.60;89.60
2929;DHT22;1474;51.460;7.150;2023-07-31T03:19:12;16.60;89.60
2929;DHT22;1474;51.460;7.150;2023-07-31T03:21:38;16.60;89.90
2929;DHT22;1474;51.460;7.150;2023-07-31T03:24:07;16.60;89.90
2929;DHT22;1474;51.460;7.150;2023-07-31T03:26:33;16.60;90.00
2929;DHT22;1474;51.460;7.150;2023-07-31T03:28:59;16.70;89.90
2929;DHT22;1474;51.460;7.150;2023-07-31T03:31:28;16.70;90.10
2929;DHT22;1474;51.460;7.150;2023-07-31T03:33:53;16.70;89.80
2929;DHT22;1474;51.460;7.150;2023-07-31T03:36:19;16.70;89.70
2929;DHT22;1474;51.460;7.150;2023-07-31T03:38:46;16.70;89.70
2929;DHT22;1474;51.460;7.150;2023-07-31T03:41:12;16.70;89.80
2929;DHT22;1474;51.460;7.150;2023-07-31T03:43:38;16.70;89.80
2929;DHT22;1474;51.460;7.150;2023-07-31T03:46:07;16.70;90.00
2929;DHT22;1474;51.460;7.150;2023-07-31T03:48:35;16.70;89.70
2929;DHT22;1474;51.460;7.150;2023-07-31T03:51:01;16.80;89.70
2929;DHT22;1474;51.460;7.150;2023-07-31T03:53:26;16.80;89.80
2929;DHT22;1474;51.460;7.150;2023-07-31T03:55:52;16.80;89.50
2929;DHT22;1474;51.460;7.150;2023-07-31T03:58:18;16.80;89.10
2929;DHT22;1474;51.460;7.150;2023-07-31T04:00:48;16.80;89.40
2929;DHT22;1474;51.460;7.150;2023-07-31T04:03:14;16.80;89.30
2929;DHT22;1474;51.460;7.150;2023-07-31T04:05:40;16.80;89.00
2929;DHT22;1474;51.460;7.150;2023-07-31T04:08:08;16.80;89.20
2929;DHT22;1474;51.460;7.150;2023-07-31T04:10:34;16.80;89.20
2929;DHT22;1474;51.460;7.150;2023-07-31T04:13:03;16.80;89.30
2929;DHT22;1474;51.460;7.150;2023-07-31T04:15:29;16.90;89.30
2929;DHT22;1474;51.460;7.150;2023-07-31T04:17:55;16.90;89.30
2929;DHT22;1474;51.460;7.150;2023-07-31T04:20:24;16.90;89.30
2929;DHT22;1474;51.460;7.150;2023-07-31T04:22:55;16.90;89.20
2929;DHT22;1474;51.460;7.150;2023-07-31T04:25:27;16.90;89.30
2929;DHT22;1474;51.460;7.150;2023-07-31T04:27:53;17.00;89.10
2929;DHT22;1474;51.460;7.150;2023-07-31T04:30:19;17.00;89.20
2929;DHT22;1474;51.460;7.150;2023-07-31T04:32:48;17.00;88.70
2929;DHT22;1474;51.460;7.150;2023-07-31T04:35:14;17.00;89.00
2929;DHT22;1474;51.460;7.150;2023-07-31T04:37:40;17.00;88.70
2929;DHT22;1474;51.460;7.150;2023-07-31T04:40:07;17.00;88.70
2929;DHT22;1474;51.460;7.150;2023-07-31T04:42:33;17.00;88.90
2929;DHT22;1474;51.460;7.150;2023-07-31T04:45:00;17.00;88.80
2929;DHT22;1474;51.460;7.150;2023-07-31T04:47:26;17.10;89.10
2929;DHT22;1474;51.460;7.150;2023-07-31T04:49:52;17.10;89.20
2929;DHT22;1474;51.460;7.150;2023-07-31T04:52:18;17.10;89.30
2929;DHT22;1474;51.460;7.150;2023-07-31T04:54:43;17.10;89.10
2929;DHT22;1474;51.460;7.150;2023-07-31T04:57:09;17.10;89.20
2929;DHT22;1474;51.460;7.150;2023-07-31T04:59:35;17.10;89.00
2929;DHT22;1474;51.460;7.150;2023-07-31T05:02:02;17.10;89.30
2929;DHT22;1474;51.460;7.150;2023-07-31T05:04:28;17.10;89.40
2929;DHT22;1474;51.460;7.150;2023-07-31T05:06:54;17.20;89.30
2929;DHT22;1474;51.460;7.150;2023-07-31T05:09:19;17.20;89.20
2929;DHT22;1474;51.460;7.150;2023-07-31T05:11:45;17.10;89.20
2929;DHT22;1474;51.460;7.150;2023-07-31T05:14:11;17.20;89.80
2929;DHT22;1474;51.460;7.150;2023-07-31T05:16:37;17.20;89.40
2929;DHT22;1474;51.460;7.150;2023-07-31T05:19:03;17.30;89.10
2929;DHT22;1474;51.460;7.150;2023-07-31T05:21:28;17.20;89.10
2929;DHT22;1474;51.460;7.150;2023-07-31T05:23:54;17.30;89.00
2929;DHT22;1474;51.460;7.150;2023-07-31T05:26:20;17.30;88.90
2929;DHT22;1474;51.460;7.150;2023-07-31T05:28:46;17.30;89.00
2929;DHT22;1474;51.460;7.150;2023-07-31T05:31:12;17.30;89.00
2929;DHT22;1474;51.460;7.150;2023-07-31T05:33:38;17.40;88.80
2929;DHT22;1474;51.460;7.150;2023-07-31T05:36:04;17.30;88.80
2929;DHT22;1474;51.460;7.150;2023-07-31T05:38:30;17.40;88.80
2929;DHT22;1474;51.460;7.150;2023-07-31T05:40:56;17.30;88.90
2929;DHT22;1474;51.460;7.150;2023-07-31T05:43:21;17.40;88.90
2929;DHT22;1474;51.460;7.150;2023-07-31T05:45:47;17.30;88.80
2929;DHT22;1474;51.460;7.150;2023-07-31T05:48:13;17.40;89.00
2929;DHT22;1474;51.460;7.150;2023-07-31T05:50:39;17.30;89.20
2929;DHT22;1474;51.460;7.150;2023-07-31T05:53:06;17.40;89.30
2929;DHT22;1474;51.460;7.150;2023-07-31T05:55:33;17.40;89.60
2929;DHT22;1474;51.460;7.150;2023-07-31T05:57:59;17.40;89.60
2929;DHT22;1474;51.460;7.150;2023-07-31T06:00:25;17.30;89.80
2929;DHT22;1474;51.460;7.150;2023-07-31T06:02:51;17.30;90.00
2929;DHT22;1474;51.460;7.150;2023-07-31T06:05:17;17.30;90.00
2929;DHT22;1474;51.460;7.150;2023-07-31T06:07:42;17.30;89.90
2929;DHT22;1474;51.460;7.150;2023-07-31T06:10:08;17.20;90.10
2929;DHT22;1474;51.460;7.150;2023-07-31T06:12:35;17.20;90.10
2929;DHT22;1474;51.460;7.150;2023-07-31T06:15:05;17.20;90.10
2929;DHT22;1474;51.460;7.150;2023-07-31T06:17:31;17.20;90.10
2929;DHT22;1474;51.460;7.150;2023-07-31T06:19:57;17.20;90.10
2929;DHT22;1474;51.460;7.150;2023-07-31T06:22:22;17.30;90.20
2929;DHT22;1474;51.460;7.150;2023-07-31T06:24:48;17.30;90.10
2929;DHT22;1474;51.460;7.150;2023-07-31T06:27:14;17.40;90.00
2929;DHT22;1474;51.460;7.150;2023-07-31T06:29:40;17.40;90.00
2929;DHT22;1474;51.460;7.150;2023-07-31T06:32:07;17.40;89.90
2929;DHT22;1474;51.460;7.150;2023-07-31T06:34:33;17.50;90.00
2929;DHT22;1474;51.460;7.150;2023-07-31T06:36:59;17.50;89.90
2929;DHT22;1474;51.460;7.150;2023-07-31T06:39:25;17.60;90.00
2929;DHT22;1474;51.460;7.150;2023-07-31T06:41:50;17.60;90.10
2929;DHT22;1474;51.460;7.150;2023-07-31T06:44:16;17.60;90.20
2929;DHT22;1474;51.460;7.150;2023-07-31T06:46:42;17.60;90.00
2929;DHT22;1474;51.460;7.150;2023-07-31T06:49:08;17.60;90.00
2929;DHT22;1474;51.460;7.150;2023-07-31T06:51:34;17.60;90.00
2929;DHT22;1474;51.460;7.150;2023-07-31T06:54:01;17.60;90.00
2929;DHT22;1474;51.460;7.150;2023-07-31T06:56:28;17.60;90.00
2929;DHT22;1474;51.460;7.150;2023-07-31T06:58:54;17.50;90.00
2929;DHT22;1474;51.460;7.150;2023-07-31T07:01:21;17.50;90.00
2929;DHT22;1474;51.460;7.150;2023-07-31T07:03:47;17.50;90.10
2929;DHT22;1474;51.460;7.150;2023-07-31T07:06:16;17.50;90.20
2929;DHT22;1474;51.460;7.150;2023-07-31T07:08:43;17.50;90.00
2929;DHT22;1474;51.460;7.150;2023-07-31T07:11:09;17.40;90.20
2929;DHT22;1474;51.460;7.150;2023-07-31T07:13:35;17.40;90.30
2929;DHT22;1474;51.460;7.150;2023-07-31T07:16:01;17.40;90.50
2929;DHT22;1474;51.460;7.150;2023-07-31T07:18:27;17.40;90.50
2929;DHT22;1474;51.460;7.150;2023-07-31T07:20:54;17.40;90.60
2929;DHT22;1474;51.460;7.150;2023-07-31T07:23:23;17.40;90.80
2929;DHT22;1474;51.460;7.150;2023-07-31T07:25:52;17.40;90.60
2929;DHT22;1474;51.460;7.150;2023-07-31T07:28:20;17.30;90.70
2929;DHT22;1474;51.460;7.150;2023-07-31T07:30:51;17.30;90.90
2929;DHT22;1474;51.460;7.150;2023-07-31T07:33:20;17.30;90.90
2929;DHT22;1474;51.460;7.150;2023-07-31T07:35:46;17.30;90.80
2929;DHT22;1474;51.460;7.150;2023-07-31T07:38:14;17.30;90.90
2929;DHT22;1474;51.460;7.150;2023-07-31T07:40:47;17.30;90.80
2929;DHT22;1474;51.460;7.150;2023-07-31T07:43:39;17.30;90.90
2929;DHT22;1474;51.460;7.150;2023-07-31T07:46:17;17.30;90.90
2929;DHT22;1474;51.460;7.150;2023-07-31T07:48:43;17.30;91.10
2929;DHT22;1474;51.460;7.150;2023-07-31T07:51:16;17.40;91.10
2929;DHT22;1474;51.460;7.150;2023-07-31T07:53:42;17.40;91.10
2929;DHT22;1474;51.460;7.150;2023-07-31T07:56:11;17.40;91.00
2929;DHT22;1474;51.460;7.150;2023-07-31T07:58:54;17.40;91.00
2929;DHT22;1474;51.460;7.150;2023-07-31T08:01:20;17.50;91.00
2929;DHT22;1474;51.460;7.150;2023-07-31T08:03:50;17.40;90.70
2929;DHT22;1474;51.460;7.150;2023-07-31T08:06:18;17.50;90.80
2929;DHT22;1474;51.460;7.150;2023-07-31T08:08:49;17.40;90.70
2929;DHT22;1474;51.460;7.150;2023-07-31T08:11:16;17.40;90.60
2929;DHT22;1474;51.460;7.150;2023-07-31T08:13:41;17.40;90.60
2929;DHT22;1474;51.460;7.150;2023-07-31T08:16:07;17.40;90.70
2929;DHT22;1474;51.460;7.150;2023-07-31T08:18:41;17.40;90.80
2929;DHT22;1474;51.460;7.150;2023-07-31T08:21:10;17.40;91.00
2929;DHT22;1474;51.460;7.150;2023-07-31T08:23:36;17.40;91.00
2929;DHT22;1474;51.460;7.150;2023-07-31T08:26:02;17.40;90.70
2929;DHT22;1474;51.460;7.150;2023-07-31T08:28:28;17.30;90.80
2929;DHT22;1474;51.460;7.150;2023-07-31T08:30:54;17.40;91.00
2929;DHT22;1474;51.460;7.150;2023-07-31T08:33:20;17.40;91.00
2929;DHT22;1474;51.460;7.150;2023-07-31T08:35:46;17.40;90.90
2929;DHT22;1474;51.460;7.150;2023-07-31T08:38:12;17.50;90.70
2929;DHT22;1474;51.460;7.150;2023-07-31T08:40:38;17.50;90.70
2929;DHT22;1474;51.460;7.150;2023-07-31T08:43:04;17.50;90.70
2929;DHT22;1474;51.460;7.150;2023-07-31T08:45:32;17.50;90.70
2929;DHT22;1474;51.460;7.150;2023-07-31T08:47:59;17.50;90.60
2929;DHT22;1474;51.460;7.150;2023-07-31T08:50:28;17.50;90.60
2929;DHT22;1474;51.460;7.150;2023-07-31T08:52:54;17.50;90.60
2929;DHT22;1474;51.460;7.150;2023-07-31T08:55:23;17.50;90.80
2929;DHT22;1474;51.460;7.150;2023-07-31T08:57:51;17.50;90.70
2929;DHT22;1474;51.460;7.150;2023-07-31T09:00:20;17.50;91.00
2929;DHT22;1474;51.460;7.150;2023-07-31T09:02:59;17.50;90.90
2929;DHT22;1474;51.460;7.150;2023-07-31T09:05:32;17.50;90.80
2929;DHT22;1474;51.460;7.150;2023-07-31T09:08:00;17.50;90.70
2929;DHT22;1474;51.460;7.150;2023-07-31T09:10:30;17.50;90.90
2929;DHT22;1474;51.460;7.150;2023-07-31T09:12:56;17.50;90.80
2929;DHT22;1474;51.460;7.150;2023-07-31T09:15:27;17.50;90.80
2929;DHT22;1474;51.460;7.150;2023-07-31T09:18:01;17.60;91.10
2929;DHT22;1474;51.460;7.150;2023-07-31T09:20:28;17.60;90.90
2929;DHT22;1474;51.460;7.150;2023-07-31T09:23:09;17.50;90.90
2929;DHT22;1474;51.460;7.150;2023-07-31T09:25:37;17.50;91.00
2929;DHT22;1474;51.460;7.150;2023-07-31T09:28:06;17.50;91.00
2929;DHT22;1474;51.460;7.150;2023-07-31T09:30:52;17.50;91.00
2929;DHT22;1474;51.460;7.150;2023-07-31T09:33:19;17.50;91.10
2929;DHT22;1474;51.460;7.150;2023-07-31T09:35:45;17.50;91.00
2929;DHT22;1474;51.460;7.150;2023-07-31T09:38:14;17.60;91.10
2929;DHT22;1474;51.460;7.150;2023-07-31T09:40:43;17.50;90.70
2929;DHT22;1474;51.460;7.150;2023-07-31T09:43:20;17.50;90.80
2929;DHT22;1474;51.460;7.150;2023-07-31T09:45:47;17.50;91.00
2929;DHT22;1474;51.460;7.150;2023-07-31T09:48:18;17.60;91.20
2929;DHT22;1474;51.460;7.150;2023-07-31T09:50:49;17.60;91.20
2929;DHT22;1474;51.460;7.150;2023-07-31T09:53:16;17.70;91.20
2929;DHT22;1474;51.460;7.150;2023-07-31T09:55:42;17.70;91.40
2929;DHT22;1474;51.460;7.150;2023-07-31T09:58:10;17.80;90.90
2929;DHT22;1474;51.460;7.150;2023-07-31T10:00:37;17.80;90.80
2929;DHT22;1474;51.460;7.150;2023-07-31T10:03:10;17.80;90.80
2929;DHT22;1474;51.460;7.150;2023-07-31T10:05:53;17.80;90.70
2929;DHT22;1474;51.460;7.150;2023-07-31T10:08:27;17.80;90.80
2929;DHT22;1474;51.460;7.150;2023-07-31T10:11:00;17.80;90.80
2929;DHT22;1474;51.460;7.150;2023-07-31T10:13:31;17.80;90.70
2929;DHT22;1474;51.460;7.150;2023-07-31T10:15:59;17.70;90.90
2929;DHT22;1474;51.460;7.150;2023-07-31T10:18:27;17.80;90.90
2929;DHT22;1474;51.460;7.150;2023-07-31T10:20:55;17.80;90.90
2929;DHT22;1474;51.460;7.150;2023-07-31T10:23:36;17.80;90.80
2929;DHT22;1474;51.460;7.150;2023-07-31T16:24:52;19.20;84.60
2929;DHT22;1474;51.460;7.150;2023-07-31T16:27:22;19.10;85.80
2929;DHT22;1474;51.460;7.150;2023-07-31T16:29:50;19.10;86.30
2929;DHT22;1474;51.460;7.150;2023-07-31T16:32:17;19.00;86.80
2929;DHT22;1474;51.460;7.150;2023-07-31T16:34:48;19.00;86.90
2929;DHT22;1474;51.460;7.150;2023-07-31T16:37:18;18.90;87.40
2929;DHT22;1474;51.460;7.150;2023-07-31T16:39:54;18.90;87.70
2929;DHT22;1474;51.460;7.150;2023-07-31T16:42:21;18.90;88.00
2929;DHT22;1474;51.460;7.150;2023-07-31T16:44:54;18.80;88.00
2929;DHT22;1474;51.460;7.150;2023-07-31T16:47:24;18.70;88.20
2929;DHT22;1474;51.460;7.150;2023-07-31T16:50:36;18.70;88.30
2929;DHT22;1474;51.460;7.150;2023-07-31T16:52:51;18.70;88.70
2929;DHT22;1474;51.460;7.150;2023-07-31T16:55:20;18.70;88.90
2929;DHT22;1474;51.460;7.150;2023-07-31T16:57:52;18.70;88.80
2929;DHT22;1474;51.460;7.150;2023-07-31T17:00:25;18.70;88.60
2929;DHT22;1474;51.460;7.150;2023-07-31T17:03:05;18.70;88.40
2929;DHT22;1474;51.460;7.150;2023-07-31T17:05:46;18.50;88.50
2929;DHT22;1474;51.460;7.150;2023-07-31T17:08:13;18.50;88.60
2929;DHT22;1474;51.460;7.150;2023-07-31T17:10:44;18.40;89.20
2929;DHT22;1474;51.460;7.150;2023-07-31T17:13:20;18.50;89.40
2929;DHT22;1474;51.460;7.150;2023-07-31T17:15:46;18.50;89.20
2929;DHT22;1474;51.460;7.150;2023-07-31T17:18:18;18.40;89.20
2929;DHT22;1474;51.460;7.150;2023-07-31T17:20:53;18.40;89.50
2929;DHT22;1474;51.460;7.150;2023-07-31T17:23:46;18.40;89.90
2929;DHT22;1474;51.460;7.150;2023-07-31T17:26:13;18.40;89.50
2929;DHT22;1474;51.460;7.150;2023-07-31T17:28:41;18.40;89.40
2929;DHT22;1474;51.460;7.150;2023-07-31T17:31:12;18.30;89.60
2929;DHT22;1474;51.460;7.150;2023-07-31T17:33:40;18.30;89.70
2929;DHT22;1474;51.460;7.150;2023-07-31T17:36:12;18.30;90.00
2929;DHT22;1474;51.460;7.150;2023-07-31T17:38:38;18.30;90.00
2929;DHT22;1474;51.460;7.150;2023-07-31T17:41:05;18.30;90.00
2929;DHT22;1474;51.460;7.150;2023-07-31T17:43:32;18.30;90.00
2929;DHT22;1474;51.460;7.150;2023-07-31T17:45:59;18.20;89.90
2929;DHT22;1474;51.460;7.150;2023-07-31T17:48:32;18.20;90.00
2929;DHT22;1474;51.460;7.150;2023-07-31T17:51:02;18.20;90.20
2929;DHT22;1474;51.460;7.150;2023-07-31T17:53:35;18.20;90.30
2929;DHT22;1474;51.460;7.150;2023-07-31T17:56:01;18.20;90.00
2929;DHT22;1474;51.460;7.150;2023-07-31T17:58:28;18.20;90.20
2929;DHT22;1474;51.460;7.150;2023-07-31T18:00:55;18.20;90.30
2929;DHT22;1474;51.460;7.150;2023-07-31T18:03:21;18.20;90.30
2929;DHT22;1474;51.460;7.150;2023-07-31T18:05:47;18.20;90.30
2929;DHT22;1474;51.460;7.150;2023-07-31T18:08:24;18.20;90.30
2929;DHT22;1474;51.460;7.150;2023-07-31T18:10:56;18.20;90.30
2929;DHT22;1474;51.460;7.150;2023-07-31T18:13:23;18.10;90.40
2929;DHT22;1474;51.460;7.150;2023-07-31T18:15:49;18.10;90.50
2929;DHT22;1474;51.460;7.150;2023-07-31T18:18:17;18.10;90.60
2929;DHT22;1474;51.460;7.150;2023-07-31T18:20:50;18.00;90.80
2929;DHT22;1474;51.460;7.150;2023-07-31T18:23:16;18.00;90.80
2929;DHT22;1474;51.460;7.150;2023-07-31T18:25:47;18.00;90.80
2929;DHT22;1474;51.460;7.150;2023-07-31T18:28:13;18.00;91.10
2929;DHT22;1474;51.460;7.150;2023-07-31T18:30:39;18.00;90.90
2929;DHT22;1474;51.460;7.150;2023-07-31T18:33:06;18.00;90.90
2929;DHT22;1474;51.460;7.150;2023-07-31T18:35:38;18.00;90.90
2929;DHT22;1474;51.460;7.150;2023-07-31T18:38:04;18.00;90.90
2929;DHT22;1474;51.460;7.150;2023-07-31T18:40:32;18.00;90.70
2929;DHT22;1474;51.460;7.150;2023-07-31T18:43:00;18.00;90.90
2929;DHT22;1474;51.460;7.150;2023-07-31T18:45:31;18.00;91.20
2929;DHT22;1474;51.460;7.150;2023-07-31T18:48:00;17.90;91.00
2929;DHT22;1474;51.460;7.150;2023-07-31T18:50:29;18.00;91.00
2929;DHT22;1474;51.460;7.150;2023-07-31T18:52:55;17.90;91.00
2929;DHT22;1474;51.460;7.150;2023-07-31T18:55:21;17.90;91.10
2929;DHT22;1474;51.460;7.150;2023-07-31T18:57:48;17.80;91.20
2929;DHT22;1474;51.460;7.150;2023-07-31T19:00:17;17.80;91.40
2929;DHT22;1474;51.460;7.150;2023-07-31T19:02:43;17.70;91.50
2929;DHT22;1474;51.460;7.150;2023-07-31T19:05:09;17.70;91.60
2929;DHT22;1474;51.460;7.150;2023-07-31T19:07:35;17.70;91.60
2929;DHT22;1474;51.460;7.150;2023-07-31T19:10:04;17.70;91.60
2929;DHT22;1474;51.460;7.150;2023-07-31T19:12:30;17.70;91.60
2929;DHT22;1474;51.460;7.150;2023-07-31T19:14:57;17.70;91.70
2929;DHT22;1474;51.460;7.150;2023-07-31T19:17:23;17.70;91.70
2929;DHT22;1474;51.460;7.150;2023-07-31T19:19:48;17.70;91.70
2929;DHT22;1474;51.460;7.150;2023-07-31T19:22:14;17.70;91.70
2929;DHT22;1474;51.460;7.150;2023-07-31T19:24:40;17.70;91.80
2929;DHT22;1474;51.460;7.150;2023-07-31T19:27:07;17.70;91.80
2929;DHT22;1474;51.460;7.150;2023-07-31T19:29:35;17.70;91.90
2929;DHT22;1474;51.460;7.150;2023-07-31T19:32:01;17.70;91.80
2929;DHT22;1474;51.460;7.150;2023-07-31T19:34:27;17.70;91.80
2929;DHT22;1474;51.460;7.150;2023-07-31T19:36:53;17.80;91.80
2929;DHT22;1474;51.460;7.150;2023-07-31T19:39:19;17.70;91.80
2929;DHT22;1474;51.460;7.150;2023-07-31T19:41:45;17.70;91.90
2929;DHT22;1474;51.460;7.150;2023-07-31T19:44:11;17.70;91.90
2929;DHT22;1474;51.460;7.150;2023-07-31T19:46:37;17.70;91.90
2929;DHT22;1474;51.460;7.150;2023-07-31T19:49:03;17.60;91.90
2929;DHT22;1474;51.460;7.150;2023-07-31T19:51:31;17.60;91.90
2929;DHT22;1474;51.460;7.150;2023-07-31T19:53:56;17.60;92.00
2929;DHT22;1474;51.460;7.150;2023-07-31T19:56:22;17.60;92.10
2929;DHT22;1474;51.460;7.150;2023-07-31T19:58:48;17.60;92.10
2929;DHT22;1474;51.460;7.150;2023-07-31T20:01:14;17.70;92.10
2929;DHT22;1474;51.460;7.150;2023-07-31T20:03:47;17.60;92.00
2929;DHT22;1474;51.460;7.150;2023-07-31T20:06:13;17.60;92.10
2929;DHT22;1474;51.460;7.150;2023-07-31T20:08:42;17.60;92.20
2929;DHT22;1474;51.460;7.150;2023-07-31T20:11:08;17.70;92.20
2929;DHT22;1474;51.460;7.150;2023-07-31T20:13:34;17.60;92.10
2929;DHT22;1474;51.460;7.150;2023-07-31T20:16:00;17.60;92.20
2929;DHT22;1474;51.460;7.150;2023-07-31T20:18:30;17.60;92.10
2929;DHT22;1474;51.460;7.150;2023-07-31T20:20:59;17.60;92.30
2929;DHT22;1474;51.460;7.150;2023-07-31T20:23:25;17.60;92.20
2929;DHT22;1474;51.460;7.150;2023-07-31T20:25:51;17.60;92.20
2929;DHT22;1474;51.460;7.150;2023-07-31T20:28:17;17.60;92.10
2929;DHT22;1474;51.460;7.150;2023-07-31T20:30:43;17.60;92.20
2929;DHT22;1474;51.460;7.150;2023-07-31T20:33:10;17.60;92.20
2929;DHT22;1474;51.460;7.150;2023-07-31T20:35:36;17.70;92.30
2929;DHT22;1474;51.460;7.150;2023-07-31T20:38:03;17.70;92.20
2929;DHT22;1474;51.460;7.150;2023-07-31T20:40:29;17.70;92.20
2929;DHT22;1474;51.460;7.150;2023-07-31T20:42:57;17.60;92.20
2929;DHT22;1474;51.460;7.150;2023-07-31T20:45:33;17.70;92.50
2929;DHT22;1474;51.460;7.150;2023-07-31T20:48:04;17.70;92.20
2929;DHT22;1474;51.460;7.150;2023-07-31T20:50:30;17.70;92.10
2929;DHT22;1474;51.460;7.150;2023-07-31T20:52:57;17.70;92.40
2929;DHT22;1474;51.460;7.150;2023-07-31T20:55:24;17.70;92.20
2929;DHT22;1474;51.460;7.150;2023-07-31T20:57:50;17.70;92.10
2929;DHT22;1474;51.460;7.150;2023-07-31T21:00:17;17.80;92.10
2929;DHT22;1474;51.460;7.150;2023-07-31T21:02:44;17.80;92.00
2929;DHT22;1474;51.460;7.150;2023-07-31T21:05:10;17.80;91.90
2929;DHT22;1474;51.460;7.150;2023-07-31T21:07:38;17.80;91.90
2929;DHT22;1474;51.460;7.150;2023-07-31T21:10:14;17.80;91.90
2929;DHT22;1474;51.460;7.150;2023-07-31T21:12:42;17.70;92.00
2929;DHT22;1474;51.460;7.150;2023-07-31T21:15:09;17.70;92.00
2929;DHT22;1474;51.460;7.150;2023-07-31T21:17:37;17.70;92.00
2929;DHT22;1474;51.460;7.150;2023-07-31T21:20:04;17.70;92.00
2929;DHT22;1474;51.460;7.150;2023-07-31T21:22:31;17.80;92.00
2929;DHT22;1474;51.460;7.150;2023-07-31T21:24:57;17.70;91.90
2929;DHT22;1474;51.460;7.150;2023-07-31T21:27:23;17.80;92.00
2929;DHT22;1474;51.460;7.150;2023-07-31T21:29:49;17.80;91.80
2929;DHT22;1474;51.460;7.150;2023-07-31T21:32:18;17.70;91.80
2929;DHT22;1474;51.460;7.150;2023-07-31T21:34:44;17.70;91.90
2929;DHT22;1474;51.460;7.150;2023-07-31T21:37:11;17.80;91.90
2929;DHT22;1474;51.460;7.150;2023-07-31T21:39:37;17.80;91.80
2929;DHT22;1474;51.460;7.150;2023-07-31T21:42:05;17.80;91.80
2929;DHT22;1474;51.460;7.150;2023-07-31T21:44:36;17.80;91.80
2929;DHT22;1474;51.460;7.150;2023-07-31T21:47:02;17.80;91.70
2929;DHT22;1474;51.460;7.150;2023-07-31T21:49:28;17.80;91.70
2929;DHT22;1474;51.460;7.150;2023-07-31T21:51:54;17.80;91.80
2929;DHT22;1474;51.460;7.150;2023-07-31T21:54:20;17.80;91.90
2929;DHT22;1474;51.460;7.150;2023-07-31T21:56:46;17.80;91.90
2929;DHT22;1474;51.460;7.150;2023-07-31T21:59:12;17.80;91.90
2929;DHT22;1474;51.460;7.150;2023-07-31T22:01:38;17.80;92.00
2929;DHT22;1474;51.460;7.150;2023-07-31T22:04:04;17.80;92.00
2929;DHT22;1474;51.460;7.150;2023-07-31T22:06:30;17.80;92.00
2929;DHT22;1474;51.460;7.150;2023-07-31T22:08:55;17.80;92.00
2929;DHT22;1474;51.460;7.150;2023-07-31T22:11:21;17.80;92.00